Time;durP1;ratioP1;P1;durP2;ratioP2;P2;SDS_P1;SDS_P2;PMS_P1;PMS_P2;Temp;Humidity;BMP_temperature;BMP_pressure;BME280_temperature;BME280_humidity;BME280_pressure;Samples;Min_cycle;Max_cycle;Signal;HPM_P1;HPM_P2
2022/09/30 00:00:00;;;;;;;31.70;19.80;;;;;;;8.61;95.89;97662.04;105551;1281;24164;-70
2022/09/30 00:02:27;;;;;;;33.60;21.40;;;;;;;8.60;96.04;97663.72;105475;1281;25375;-70
2022/09/30 00:04:58;;;;;;;31.20;21.50;;;;;;;8.59;95.82;97658.27;105359;1281;138153;-70
2022/09/30 00:07:43;;;;;;;25.30;18.20;;;;;;;8.59;96.14;97657.06;105494;1281;22611;-70
2022/09/30 00:10:10;;;;;;;29.50;20.60;;;;;;;8.57;95.98;97652.28;105472;1280;138706;-70
2022/09/30 00:12:37;;;;;;;29.60;19.80;;;;;;;8.56;95.85;97649.77;105517;1280;25411;-70
2022/09/30 00:15:05;;;;;;;31.30;21.50;;;;;;;8.56;96.10;97647.59;105607;1280;24236;-70
2022/09/30 00:17:34;;;;;;;34.00;21.50;;;;;;;8.56;95.91;97646.46;105679;1280;138226;-70
2022/09/30 00:20:01;;;;;;;34.60;21.60;;;;;;;8.55;96.19;97640.96;105628;1280;23351;-72
2022/09/30 00:22:31;;;;;;;36.40;22.00;;;;;;;8.55;96.11;97643.02;105568;1280;138728;-70
2022/09/30 00:24:58;;;;;;;32.00;21.80;;;;;;;8.55;96.21;97642.98;105472;1280;22644;-70
2022/09/30 00:27:25;;;;;;;28.10;20.10;;;;;;;8.57;96.28;97644.61;105682;1280;25387;-70
2022/09/30 00:29:55;;;;;;;33.20;21.20;;;;;;;8.59;96.35;97643.23;105616;1280;138041;-70
2022/09/30 00:32:21;;;;;;;32.40;21.60;;;;;;;8.60;96.11;97645.64;105646;1280;22589;-70
2022/09/30 00:34:48;;;;;;;30.80;21.00;;;;;;;8.61;96.28;97647.81;105559;1280;138369;-70
2022/09/30 00:37:15;;;;;;;33.10;22.40;;;;;;;8.63;96.29;97650.07;105476;1280;22558;-70
2022/09/30 00:39:42;;;;;;;30.10;19.90;;;;;;;8.64;96.40;97643.52;105659;1280;138525;-70
2022/09/30 00:42:14;;;;;;;36.30;23.40;;;;;;;8.66;96.47;97648.21;105638;1279;22707;-70
2022/09/30 00:45:02;;;;;;;32.60;22.00;;;;;;;8.69;96.51;97649.65;105580;1280;25511;-70
2022/09/30 00:47:45;;;;;;;34.10;21.40;;;;;;;8.72;96.49;97652.36;105565;1280;138804;-70
2022/09/30 00:50:24;;;;;;;31.80;22.20;;;;;;;8.75;96.53;97654.73;105488;1280;25324;-70
2022/09/30 00:53:10;;;;;;;31.80;21.80;;;;;;;8.77;96.13;97647.85;105303;1281;138831;-69
2022/09/30 00:55:50;;;;;;;31.80;20.40;;;;;;;8.77;95.95;97638.79;105477;1281;22688;-69
2022/09/30 00:58:35;;;;;;;29.00;21.10;;;;;;;8.75;95.78;97640.11;105315;1281;138205;-69
2022/09/30 01:01:03;;;;;;;26.60;18.60;;;;;;;8.72;95.99;97644.16;105663;1280;25271;-70
2022/09/30 01:03:39;;;;;;;28.00;18.70;;;;;;;8.70;95.91;97648.95;105530;1280;138702;-70
2022/09/30 01:06:06;;;;;;;28.20;19.00;;;;;;;8.69;95.91;97654.15;105465;1280;24395;-70
2022/09/30 01:08:37;;;;;;;27.20;18.70;;;;;;;8.68;96.10;97663.92;105535;1280;24329;-70
2022/09/30 01:11:06;;;;;;;27.10;17.70;;;;;;;8.69;96.34;97658.67;105416;1281;138117;-70
2022/09/30 01:13:35;;;;;;;27.10;18.80;;;;;;;8.70;96.25;97657.97;105530;1281;22994;-70
2022/09/30 01:16:14;;;;;;;30.00;19.60;;;;;;;8.70;96.10;97657.16;105508;1281;138933;-70
2022/09/30 01:19:19;;;;;;;26.00;19.00;;;;;;;8.69;96.17;97658.19;105511;1280;22537;-70
2022/09/30 01:22:26;;;;;;;34.30;19.80;;;;;;;8.70;96.20;97659.34;105422;1281;138920;-70
2022/09/30 01:24:56;;;;;;;27.40;18.20;;;;;;;8.73;96.31;97655.57;105404;1281;24691;-70
2022/09/30 01:27:46;;;;;;;28.10;18.40;;;;;;;8.74;96.35;97652.98;105533;1281;25376;-70
2022/09/30 01:30:38;;;;;;;30.80;19.10;;;;;;;8.74;96.28;97655.42;105521;1280;25261;-70
2022/09/30 01:33:20;;;;;;;29.20;18.80;;;;;;;8.75;96.07;97661.34;105559;1280;22598;-70
2022/09/30 01:36:08;;;;;;;28.90;19.90;;;;;;;8.76;96.13;97663.73;105363;1280;139081;-70
2022/09/30 01:38:43;;;;;;;32.50;20.70;;;;;;;8.76;96.23;97659.63;105651;1279;22557;-70
2022/09/30 01:41:18;;;;;;;32.80;20.10;;;;;;;8.78;95.97;97661.43;105434;1280;138149;-70
2022/09/30 01:44:01;;;;;;;29.50;19.60;;;;;;;8.77;96.04;97661.33;105621;1280;25423;-70
2022/09/30 01:46:33;;;;;;;33.20;21.50;;;;;;;8.77;95.99;97667.18;105524;1280;138146;-70
2022/09/30 01:49:00;;;;;;;33.90;21.60;;;;;;;8.76;95.94;97667.05;105493;1280;24403;-70
2022/09/30 01:51:41;;;;;;;28.70;19.90;;;;;;;8.77;95.93;97667.39;105503;1280;22538;-70
2022/09/30 01:54:26;;;;;;;29.80;20.30;;;;;;;8.76;95.77;97671.09;105443;1281;24375;-70
2022/09/30 01:57:00;;;;;;;32.80;20.70;;;;;;;8.75;96.01;97670.84;105537;1281;23358;-70
2022/09/30 01:59:41;;;;;;;31.90;20.60;;;;;;;8.74;95.87;97667.58;105450;1281;138818;-70
2022/09/30 02:02:20;;;;;;;32.80;21.20;;;;;;;8.73;96.23;97672.84;105501;1280;22535;-70
2022/09/30 02:05:24;;;;;;;29.10;20.10;;;;;;;8.72;96.08;97673.10;105682;1280;138183;-70
2022/09/30 02:07:59;;;;;;;29.00;18.20;;;;;;;8.72;96.22;97673.59;105549;1280;25723;-70
2022/09/30 02:10:44;;;;;;;28.60;19.20;;;;;;;8.72;96.10;97672.34;105442;1280;140439;-70
2022/09/30 02:13:19;;;;;;;31.40;19.90;;;;;;;8.71;96.23;97669.45;105516;1281;31137;-70
2022/09/30 02:15:53;;;;;;;27.60;19.50;;;;;;;8.72;96.29;97669.07;105423;1281;139243;-70
2022/09/30 02:18:49;;;;;;;29.10;19.00;;;;;;;8.71;96.20;97666.40;105529;1281;22572;-70
2022/09/30 02:21:26;;;;;;;30.90;20.10;;;;;;;8.72;96.36;97665.27;105502;1280;25538;-70
2022/09/30 02:24:10;;;;;;;26.60;18.80;;;;;;;8.72;96.25;97665.39;105615;1280;138238;-70
2022/09/30 02:26:41;;;;;;;29.80;19.60;;;;;;;8.72;96.23;97657.50;105650;1280;23094;-70
2022/09/30 02:29:11;;;;;;;35.30;20.50;;;;;;;8.73;96.35;97658.56;105530;1280;138343;-70
2022/09/30 02:31:43;;;;;;;30.10;19.70;;;;;;;8.73;96.52;97664.86;105426;1280;25336;-70
2022/09/30 02:34:24;;;;;;;30.40;18.90;;;;;;;8.75;96.47;97663.63;105414;1281;138459;-70
2022/09/30 02:37:01;;;;;;;29.10;19.50;;;;;;;8.76;96.58;97664.02;105642;1281;25483;-70
2022/09/30 02:39:36;;;;;;;27.00;18.80;;;;;;;8.77;96.41;97661.48;105531;1281;25373;-70
2022/09/30 02:42:14;;;;;;;28.70;18.40;;;;;;;8.77;96.52;97665.12;105687;1280;22540;-70
2022/09/30 02:44:42;;;;;;;27.40;18.80;;;;;;;8.78;96.70;97667.02;105562;1280;22744;-72
2022/09/30 02:47:16;;;;;;;27.20;16.70;;;;;;;8.79;96.72;97667.41;105419;1280;138956;-70
2022/09/30 02:49:46;;;;;;;25.80;17.10;;;;;;;8.79;96.44;97668.66;105438;1281;22548;-70
2022/09/30 02:52:22;;;;;;;30.10;18.40;;;;;;;8.78;96.58;97667.95;105382;1280;138509;-70
2022/09/30 02:55:01;;;;;;;27.80;17.90;;;;;;;8.79;96.79;97668.23;105481;1280;25280;-70
2022/09/30 02:58:02;;;;;;;28.00;18.30;;;;;;;8.79;96.96;97669.38;105411;1280;139093;-70
2022/09/30 03:00:34;;;;;;;27.30;18.00;;;;;;;8.80;96.85;97670.64;105490;1280;24322;-70
2022/09/30 03:03:09;;;;;;;26.80;18.80;;;;;;;8.82;97.10;97671.09;105842;1280;25258;-70
2022/09/30 03:05:36;;;;;;;28.50;19.30;;;;;;;8.83;97.00;97670.30;105489;1280;138405;-70
2022/09/30 03:08:03;;;;;;;27.80;18.70;;;;;;;8.85;97.01;97672.34;105576;1280;22561;-70
2022/09/30 03:10:30;;;;;;;28.50;18.80;;;;;;;8.87;97.14;97674.42;105501;1280;138838;-70
2022/09/30 03:13:25;;;;;;;29.10;18.50;;;;;;;8.88;97.11;97676.11;105521;1280;22570;-70
2022/09/30 03:16:03;;;;;;;27.60;18.00;;;;;;;8.90;97.18;97680.74;105445;1280;138522;-70
2022/09/30 03:19:01;;;;;;;26.80;17.50;;;;;;;8.91;97.22;97679.62;105577;1280;22541;-69
2022/09/30 03:21:49;;;;;;;25.60;18.10;;;;;;;8.90;97.11;97685.91;105567;1280;24271;-69
2022/09/30 03:24:46;;;;;;;26.40;18.00;;;;;;;8.90;97.18;97686.02;105441;1280;22648;-70
2022/09/30 03:27:41;;;;;;;26.90;17.70;;;;;;;8.90;97.24;97689.72;105589;1280;22553;-70
2022/09/30 03:30:16;;;;;;;26.00;18.00;;;;;;;8.91;97.34;97686.73;105483;1280;22550;-70
2022/09/30 03:33:01;;;;;;;24.30;16.50;;;;;;;8.92;97.40;97682.40;105569;1280;25399;-70
2022/09/30 03:36:02;;;;;;;29.40;19.30;;;;;;;8.91;97.30;97679.90;105331;1278;138519;-70
2022/09/30 03:38:49;;;;;;;31.30;19.70;;;;;;;8.90;97.21;97678.64;105597;1280;22547;-70
2022/09/30 03:41:20;;;;;;;25.10;18.00;;;;;;;8.91;97.58;97680.05;105384;1280;138208;-71
2022/09/30 03:43:56;;;;;;;28.80;19.50;;;;;;;8.91;97.76;97682.24;105553;1280;24263;-70
2022/09/30 03:46:45;;;;;;;30.80;20.30;;;;;;;8.92;97.68;97684.14;105563;1280;140007;-71
2022/09/30 03:49:18;;;;;;;31.40;18.80;;;;;;;8.94;97.58;97687.14;105544;1280;22580;-70
2022/09/30 03:51:45;;;;;;;27.40;19.20;;;;;;;8.95;97.83;97687.59;105453;1280;140285;-71
2022/09/30 03:54:13;;;;;;;29.70;19.40;;;;;;;8.95;97.70;97692.80;105489;1280;24242;-70
2022/09/30 03:56:43;;;;;;;30.20;20.60;;;;;;;8.95;97.84;97693.02;105483;1281;25515;-71
2022/09/30 03:59:24;;;;;;;29.70;20.30;;;;;;;8.97;98.02;97698.54;105287;1281;138741;-71
2022/09/30 04:01:52;;;;;;;28.30;19.80;;;;;;;8.99;97.88;97697.10;105369;1281;24236;-71
2022/09/30 04:04:19;;;;;;;29.70;19.80;;;;;;;9.00;97.95;97700.81;105311;1280;138649;-71
2022/09/30 04:06:46;;;;;;;32.80;21.20;;;;;;;9.01;97.87;97700.33;105426;1280;25391;-71
2022/09/30 04:09:13;;;;;;;31.30;20.40;;;;;;;9.01;98.10;97702.00;105413;1280;22544;-71
2022/09/30 04:11:40;;;;;;;32.90;21.40;;;;;;;9.02;98.13;97702.56;105254;1280;138189;-71
2022/09/30 04:14:07;;;;;;;36.00;21.30;;;;;;;9.03;98.21;97702.85;105329;1281;25219;-70
2022/09/30 04:16:34;;;;;;;31.60;19.80;;;;;;;9.03;98.12;97703.34;105560;1281;138267;-71
2022/09/30 04:19:01;;;;;;;33.80;21.50;;;;;;;9.05;98.26;97706.52;105431;1281;22563;-71
2022/09/30 04:21:28;;;;;;;32.40;22.00;;;;;;;9.06;98.29;97706.63;105425;1281;22728;-71
2022/09/30 04:23:55;;;;;;;30.60;20.30;;;;;;;9.07;98.37;97704.25;105396;1280;137855;-72
2022/09/30 04:26:22;;;;;;;33.90;21.80;;;;;;;9.08;98.27;97709.91;105458;1280;25381;-72
2022/09/30 04:28:51;;;;;;;33.40;20.70;;;;;;;9.08;98.18;97710.61;105353;1280;138314;-71
2022/09/30 04:31:20;;;;;;;33.60;21.40;;;;;;;9.09;98.45;97709.54;105380;1280;22784;-71
2022/09/30 04:33:47;;;;;;;32.30;20.80;;;;;;;9.09;98.25;97710.14;105299;1279;138425;-71
2022/09/30 04:36:13;;;;;;;34.10;21.40;;;;;;;9.09;98.24;97712.91;105301;1281;24147;-71
2022/09/30 04:38:40;;;;;;;33.90;20.90;;;;;;;9.09;98.42;97713.99;105347;1281;22681;-72
2022/09/30 04:41:14;;;;;;;30.00;19.30;;;;;;;9.09;98.42;97717.80;105266;1281;138316;-72
2022/09/30 04:43:45;;;;;;;33.20;21.20;;;;;;;9.09;98.59;97714.48;105421;1281;22531;-72
2022/09/30 04:46:14;;;;;;;31.40;19.50;;;;;;;9.09;98.77;97720.03;105303;1280;138680;-72
2022/09/30 04:48:44;;;;;;;30.30;20.70;;;;;;;9.10;98.75;97719.34;105645;1280;23287;-72
2022/09/30 04:51:13;;;;;;;30.00;20.00;;;;;;;9.10;98.81;97715.30;105668;1280;23935;-72
2022/09/30 04:53:41;;;;;;;30.00;21.30;;;;;;;9.10;98.99;97715.36;105390;1280;140569;-72
2022/09/30 04:56:09;;;;;;;29.20;19.30;;;;;;;9.12;99.07;97716.20;105556;1280;22691;-72
2022/09/30 04:58:36;;;;;;;30.50;20.00;;;;;;;9.13;99.07;97720.23;105281;1280;138453;-72
2022/09/30 05:01:13;;;;;;;31.60;20.90;;;;;;;9.12;99.05;97716.27;105395;1280;24009;-72
2022/09/30 05:03:42;;;;;;;25.60;17.70;;;;;;;9.12;99.04;97717.02;105309;1280;138674;-72
2022/09/30 05:06:10;;;;;;;27.70;18.80;;;;;;;9.12;99.09;97718.33;105687;1280;24296;-72
2022/09/30 05:08:37;;;;;;;28.00;18.60;;;;;;;9.13;99.32;97720.95;105431;1280;25271;-73
2022/09/30 05:11:08;;;;;;;34.40;20.40;;;;;;;9.14;99.39;97719.27;105260;1280;139392;-72
2022/09/30 05:13:47;;;;;;;30.80;20.10;;;;;;;9.17;99.53;97717.95;105366;1281;24236;-72
2022/09/30 05:16:16;;;;;;;30.20;19.50;;;;;;;9.19;99.51;97722.98;105392;1280;139005;-72
2022/09/30 05:18:47;;;;;;;33.10;20.80;;;;;;;9.19;99.41;97727.48;105450;1280;22927;-72
2022/09/30 05:21:19;;;;;;;28.60;19.10;;;;;;;9.20;99.49;97730.31;105428;1280;25482;-72
2022/09/30 05:23:46;;;;;;;24.50;16.60;;;;;;;9.19;99.41;97734.00;105366;1280;138449;-72
2022/09/30 05:26:13;;;;;;;29.50;19.40;;;;;;;9.18;99.48;97736.75;105376;1280;24260;-72
2022/09/30 05:28:41;;;;;;;28.20;18.20;;;;;;;9.19;99.59;97743.83;105394;1280;138250;-72
2022/09/30 05:31:09;;;;;;;27.00;18.80;;;;;;;9.20;99.81;97741.51;105457;1280;22557;-73
2022/09/30 05:33:35;;;;;;;29.50;18.90;;;;;;;9.22;99.84;97748.04;105374;1280;138502;-72
2022/09/30 05:36:06;;;;;;;27.10;18.60;;;;;;;9.25;99.94;97747.27;105539;1280;23988;-73
2022/09/30 05:38:33;;;;;;;27.50;20.00;;;;;;;9.26;99.71;97745.04;105503;1280;22543;-73
2022/09/30 05:41:11;;;;;;;31.60;18.60;;;;;;;9.29;99.79;97747.26;105290;1280;138596;-72
2022/09/30 05:43:40;;;;;;;28.20;19.00;;;;;;;9.32;99.77;97746.63;105502;1280;22879;-73
2022/09/30 05:46:07;;;;;;;31.80;19.10;;;;;;;9.34;99.72;97748.66;105326;1281;138321;-73
2022/09/30 05:48:34;;;;;;;31.60;20.00;;;;;;;9.37;99.95;97749.36;105470;1280;22544;-72
2022/09/30 05:51:01;;;;;;;26.20;17.80;;;;;;;9.41;99.91;97748.20;105453;1280;22630;-72
2022/09/30 05:53:30;;;;;;;27.80;19.50;;;;;;;9.43;99.75;97744.80;105330;1280;138428;-72
2022/09/30 05:55:58;;;;;;;;;;;;;;;9.46;99.91;97741.20;105440;1280;23944;-73
2022/09/30 05:58:26;;;;;;;24.80;16.50;;;;;;;9.47;99.69;97740.50;105370;1281;124376;-72
2022/09/30 06:00:53;;;;;;;28.20;17.70;;;;;;;9.46;99.89;97740.43;105473;1281;25384;-72
2022/09/30 06:03:20;;;;;;;28.80;19.10;;;;;;;9.48;99.94;97743.72;105426;1279;32212;-73
2022/09/30 06:05:47;;;;;;;35.80;20.40;;;;;;;9.50;99.95;97745.37;105721;1280;138447;-73
2022/09/30 06:08:14;;;;;;;27.80;19.40;;;;;;;9.55;100.00;97743.14;105511;1280;24698;-73
2022/09/30 06:10:43;;;;;;;25.70;16.90;;;;;;;9.62;100.00;97750.16;105597;1280;138352;-73
2022/09/30 06:13:11;;;;;;;28.80;18.20;;;;;;;9.74;100.00;97753.44;105743;1280;26291;-73
2022/09/30 06:15:40;;;;;;;30.20;18.80;;;;;;;9.81;99.98;97753.99;106216;1280;139748;-73
2022/09/30 06:18:07;;;;;;;28.40;18.80;;;;;;;9.87;99.99;97755.96;105951;1281;22546;-73
2022/09/30 06:20:36;;;;;;;29.30;18.90;;;;;;;9.91;99.82;97752.89;106403;1280;22556;-73
2022/09/30 06:23:03;;;;;;;32.10;19.80;;;;;;;9.97;99.77;97760.13;105790;1281;138503;-73
2022/09/30 06:25:30;;;;;;;30.70;18.00;;;;;;;10.01;99.54;97759.19;105846;1281;24113;-73
2022/09/30 06:27:57;;;;;;;28.90;17.40;;;;;;;10.05;99.44;97757.09;105737;1280;138818;-73
2022/09/30 06:30:25;;;;;;;30.90;20.60;;;;;;;10.10;99.53;97760.79;106083;1280;22584;-73
2022/09/30 06:32:55;;;;;;;31.20;18.30;;;;;;;10.20;99.96;97758.91;105607;1280;22573;-72
2022/09/30 06:35:23;;;;;;;26.20;18.20;;;;;;;10.25;98.88;97757.92;105600;1280;138653;-72
2022/09/30 06:37:51;;;;;;;27.60;18.00;;;;;;;10.28;99.01;97754.02;105491;1280;24517;-72
2022/09/30 06:40:21;;;;;;;28.10;17.00;;;;;;;10.30;98.47;97760.36;105374;1281;138623;-72
2022/09/30 06:42:48;;;;;;;30.30;18.00;;;;;;;10.30;98.23;97758.92;105760;1281;22566;-72
2022/09/30 06:45:20;;;;;;;29.50;17.20;;;;;;;10.30;98.27;97760.48;105434;1281;139078;-72
2022/09/30 06:47:50;;;;;;;28.40;17.70;;;;;;;10.30;98.40;97761.33;105541;1280;24277;-75
2022/09/30 06:50:17;;;;;;;30.10;18.50;;;;;;;10.32;98.31;97758.80;105507;1280;24103;-75
2022/09/30 06:52:44;;;;;;;24.80;15.70;;;;;;;10.33;98.23;97755.11;105513;1280;138681;-75
2022/09/30 06:55:12;;;;;;;29.10;18.00;;;;;;;10.33;98.29;97758.98;105461;1280;23431;-75
2022/09/30 06:57:40;;;;;;;29.50;18.20;;;;;;;10.34;98.37;97763.95;105343;1280;139427;-75
2022/09/30 07:00:07;;;;;;;30.00;19.00;;;;;;;10.37;98.64;97763.21;105528;1280;22586;-76
2022/09/30 07:02:35;;;;;;;29.20;17.90;;;;;;;10.40;98.51;97757.02;105445;1280;25134;-75
2022/09/30 07:05:02;;;;;;;36.00;19.90;;;;;;;10.41;98.30;97759.65;105670;1280;139227;-76
2022/09/30 07:07:32;;;;;;;29.60;18.40;;;;;;;10.42;98.01;97759.77;105757;1280;22536;-73
2022/09/30 07:09:59;;;;;;;28.50;18.70;;;;;;;10.42;97.93;97759.54;105463;1280;138835;-73
2022/09/30 07:12:27;;;;;;;33.90;19.30;;;;;;;10.42;97.90;97762.81;105494;1280;23004;-72
2022/09/30 07:14:55;;;;;;;30.50;18.60;;;;;;;10.42;97.92;97763.73;105467;1280;25562;-72
2022/09/30 07:17:22;;;;;;;37.10;19.80;;;;;;;10.42;97.96;97767.61;105441;1280;138761;-72
2022/09/30 07:19:51;;;;;;;31.00;18.90;;;;;;;10.44;98.03;97772.30;105798;1280;23974;-73
2022/09/30 07:22:28;;;;;;;31.70;19.10;;;;;;;10.42;97.78;97775.39;105448;1280;139582;-72
2022/09/30 07:24:58;;;;;;;33.20;19.50;;;;;;;10.40;97.59;97773.14;105573;1280;23061;-72
2022/09/30 07:27:29;;;;;;;32.40;18.80;;;;;;;10.39;97.90;97778.09;105808;1280;140235;-72
2022/09/30 07:30:04;;;;;;;35.70;18.90;;;;;;;10.38;97.76;97780.25;105685;1280;25357;-72
2022/09/30 07:32:52;;;;;;;35.80;19.70;;;;;;;10.39;97.88;97789.90;105616;1281;25534;-72
2022/09/30 07:35:54;;;;;;;31.10;19.10;;;;;;;10.38;97.87;97795.45;105648;1281;25399;-74
2022/09/30 07:38:40;;;;;;;;;;;;;;;10.36;97.49;97799.63;106028;1281;23212;-74
2022/09/30 07:41:18;;;;;;;40.70;19.60;;;;;;;10.35;98.23;97801.84;105589;1280;125534;-74
2022/09/30 07:43:49;;;;;;;30.80;18.60;;;;;;;10.37;98.47;97808.45;105693;1281;24087;-74
2022/09/30 07:46:24;;;;;;;34.70;20.30;;;;;;;10.40;98.26;97807.86;106078;1279;138594;-74
2022/09/30 07:48:57;;;;;;;33.70;21.00;;;;;;;10.39;98.03;97803.73;106307;1281;22557;-74
2022/09/30 07:51:29;;;;;;;34.70;19.20;;;;;;;10.40;98.21;97800.58;105902;1280;139143;-74
2022/09/30 07:54:01;;;;;;;32.10;18.70;;;;;;;10.39;97.96;97800.68;105684;1281;22565;-74
2022/09/30 07:56:31;;;;;;;34.60;19.40;;;;;;;10.37;97.98;97794.67;105798;1281;26583;-74
2022/09/30 07:59:00;;;;;;;33.90;18.60;;;;;;;10.37;98.09;97795.55;105570;1280;138631;-74
2022/09/30 08:01:30;;;;;;;;;;;;;;;10.37;98.22;97797.72;105881;1280;22543;-74
2022/09/30 08:03:58;;;;;;;;;;;;;;;10.41;98.63;97797.91;105868;1281;124995;-74
2022/09/30 08:06:28;;;;;;;35.70;19.60;;;;;;;10.41;98.57;97801.08;105625;1281;23376;-74
2022/09/30 08:08:56;;;;;;;36.30;18.40;;;;;;;10.43;98.58;97804.14;106159;1281;22542;-74
2022/09/30 08:11:24;;;;;;;33.40;19.00;;;;;;;10.43;98.37;97802.19;105629;1281;139045;-74
2022/09/30 08:13:55;;;;;;;36.70;18.80;;;;;;;10.45;98.37;97803.88;105839;1281;25417;-74
2022/09/30 08:16:24;;;;;;;36.90;19.70;;;;;;;10.47;98.22;97804.11;106030;1281;140468;-74
2022/09/30 08:18:56;;;;;;;32.60;18.90;;;;;;;10.51;98.47;97803.11;105735;1281;22722;-74
2022/09/30 08:21:24;;;;;;;32.50;20.40;;;;;;;10.54;98.36;97804.39;105718;1281;138796;-74
2022/09/30 08:23:51;;;;;;;33.20;17.60;;;;;;;10.56;98.31;97807.98;105627;1281;22574;-74
2022/09/30 08:26:19;;;;;;;32.30;18.60;;;;;;;10.56;97.91;97810.55;105628;1281;24051;-74
2022/09/30 08:28:47;;;;;;;32.10;18.90;;;;;;;10.57;98.11;97815.45;105540;1279;138599;-72
2022/09/30 08:31:20;;;;;;;38.00;21.00;;;;;;;10.57;98.09;97810.66;105681;1281;24335;-72
2022/09/30 08:33:47;;;;;;;37.50;20.00;;;;;;;10.57;98.15;97811.87;105472;1281;138773;-72
2022/09/30 08:36:21;;;;;;;36.90;21.50;;;;;;;10.57;97.79;97816.38;105481;1281;25270;-72
2022/09/30 08:38:48;;;;;;;35.00;19.60;;;;;;;10.59;98.00;97815.75;105438;1281;22589;-72
2022/09/30 08:41:57;;;;;;;36.00;19.20;;;;;;;10.58;97.76;97813.73;105881;1281;139459;-73
2022/09/30 08:44:44;;;;;;;36.00;20.60;;;;;;;10.58;98.24;97812.55;105627;1280;22557;-73
2022/09/30 08:47:46;;;;;;;35.40;20.60;;;;;;;10.62;98.27;97815.02;105500;1281;139027;-73
2022/09/30 08:50:18;;;;;;;30.80;18.40;;;;;;;10.67;98.26;97813.63;105588;1281;22576;-74
2022/09/30 08:52:51;;;;;;;33.40;18.20;;;;;;;10.70;98.25;97813.65;105474;1281;138999;-75
2022/09/30 08:55:25;;;;;;;31.50;18.70;;;;;;;10.73;98.28;97811.44;105733;1281;24440;-73
2022/09/30 08:57:55;;;;;;;33.70;21.20;;;;;;;10.78;98.19;97815.39;106440;1281;139796;-75
2022/09/30 09:00:23;;;;;;;35.20;19.90;;;;;;;10.84;98.50;97816.84;106491;1281;22569;-76
2022/09/30 09:02:54;;;;;;;34.60;19.50;;;;;;;10.90;98.18;97815.19;106521;1279;22551;-75
2022/09/30 09:05:46;;;;;;;35.80;20.80;;;;;;;10.94;97.93;97814.67;105856;1281;138925;-76
2022/09/30 09:08:20;;;;;;;30.20;18.60;;;;;;;10.99;97.78;97812.85;105995;1281;24683;-76
2022/09/30 09:10:53;;;;;;;28.70;17.80;;;;;;;11.06;98.09;97819.21;105699;1280;138591;-76
2022/09/30 09:13:29;;;;;;;29.50;17.40;;;;;;;11.09;97.80;97820.05;105701;1280;22844;-76
2022/09/30 09:16:02;;;;;;;30.60;16.80;;;;;;;11.13;97.70;97820.08;105769;1281;138702;-75
2022/09/30 09:18:40;;;;;;;30.20;16.70;;;;;;;11.17;97.60;97816.00;105974;1281;24231;-76
2022/09/30 09:21:23;;;;;;;32.70;17.80;;;;;;;11.19;97.26;97813.44;105649;1281;24233;-74
2022/09/30 09:23:54;;;;;;;29.60;16.70;;;;;;;11.22;97.55;97814.50;105762;1279;23933;-71
2022/09/30 09:26:23;;;;;;;25.50;15.00;;;;;;;11.27;97.18;97811.20;105750;1281;22563;-71
2022/09/30 09:28:58;;;;;;;;;;;;;;;11.28;96.90;97816.00;105670;1280;140554;-73
2022/09/30 09:31:26;;;;;;;28.50;15.30;;;;;;;11.30;97.02;97812.26;105750;1280;22632;-71
2022/09/30 09:34:00;;;;;;;27.40;15.40;;;;;;;11.35;97.19;97811.23;105858;1280;138681;-71
2022/09/30 09:37:07;;;;;;;26.20;15.50;;;;;;;11.38;97.23;97806.08;105640;1280;25602;-71
2022/09/30 09:39:56;;;;;;;25.20;15.40;;;;;;;11.43;97.03;97811.92;105000;1287;139239;-68
2022/09/30 09:42:48;;;;;;;29.90;16.00;;;;;;;11.46;96.92;97810.02;105295;1287;30511;-74
2022/09/30 09:45:42;;;;;;;24.50;14.70;;;;;;;11.49;96.88;97810.09;104915;1286;138970;-74
2022/09/30 09:48:12;;;;;;;22.00;13.20;;;;;;;11.53;96.95;97812.13;104981;1286;23053;-73
2022/09/30 09:51:25;;;;;;;24.70;14.60;;;;;;;11.51;95.50;97816.48;104856;1286;24470;-72
2022/09/30 09:53:57;;;;;;;22.60;14.50;;;;;;;11.44;95.76;97819.02;105271;1286;22578;-73
2022/09/30 09:56:28;;;;;;;25.50;15.80;;;;;;;11.42;96.19;97821.26;104940;1286;24238;-73
2022/09/30 09:59:16;;;;;;;23.90;15.70;;;;;;;11.44;96.58;97821.90;104789;1286;139217;-72
2022/09/30 10:01:50;;;;;;;24.80;15.00;;;;;;;11.45;96.56;97826.76;105223;1286;24403;-73
2022/09/30 10:04:23;;;;;;;25.10;15.80;;;;;;;11.46;96.25;97826.94;105311;1287;138885;-73
2022/09/30 10:06:54;;;;;;;24.90;15.40;;;;;;;11.46;96.07;97828.39;105480;1286;24294;-74
2022/09/30 10:09:27;;;;;;;23.70;14.20;;;;;;;11.46;95.77;97829.28;105072;1287;139400;-73
2022/09/30 10:12:06;;;;;;;23.10;14.60;;;;;;;11.45;95.36;97826.82;105037;1286;25277;-73
2022/09/30 10:14:46;;;;;;;25.20;15.00;;;;;;;11.44;95.75;97831.06;105047;1286;24439;-73
2022/09/30 10:17:25;;;;;;;19.10;13.40;;;;;;;11.43;95.78;97835.09;105358;1280;138966;-74
2022/09/30 10:19:56;;;;;;;23.60;14.50;;;;;;;11.45;95.78;97836.69;105838;1280;25273;-73
2022/09/30 10:22:29;;;;;;;23.00;13.10;;;;;;;11.48;96.25;97843.20;105469;1280;139450;-73
2022/09/30 10:25:29;;;;;;;22.90;14.40;;;;;;;11.50;96.13;97844.56;105593;1281;22580;-72
2022/09/30 10:28:02;;;;;;;22.00;13.60;;;;;;;11.54;96.43;97846.33;105179;1285;138751;-73
2022/09/30 10:30:39;;;;;;;19.90;12.30;;;;;;;11.56;96.18;97846.77;105490;1284;25302;-73
2022/09/30 10:33:24;;;;;;;21.60;12.80;;;;;;;11.58;95.99;97854.04;105087;1286;24111;-73
2022/09/30 10:35:59;;;;;;;18.70;11.70;;;;;;;11.58;95.66;97847.75;105008;1286;24558;-72
2022/09/30 10:38:28;;;;;;;17.50;11.40;;;;;;;11.58;95.80;97854.31;105124;1286;22780;-73
2022/09/30 10:40:55;;;;;;;18.70;11.90;;;;;;;11.60;95.82;97853.33;105073;1285;139232;-73
2022/09/30 10:43:38;;;;;;;18.10;12.00;;;;;;;11.61;96.02;97863.36;105193;1285;24349;-73
2022/09/30 10:46:07;;;;;;;18.20;10.80;;;;;;;11.62;95.87;97864.14;105657;1286;139031;-73
2022/09/30 10:48:37;;;;;;;17.00;11.30;;;;;;;11.62;95.59;97869.33;105021;1284;25453;-73
2022/09/30 10:51:18;;;;;;;17.60;10.40;;;;;;;11.63;95.75;97869.11;105147;1286;24287;-73
2022/09/30 10:53:44;;;;;;;13.90;9.90;;;;;;;11.65;95.80;97870.92;106086;1285;30331;-73
2022/09/30 10:56:11;;;;;;;14.30;10.40;;;;;;;11.64;95.54;97872.92;105025;1285;24476;-73
2022/09/30 10:58:47;;;;;;;18.00;11.20;;;;;;;11.62;95.54;97871.66;104867;1285;138679;-73
2022/09/30 11:01:34;;;;;;;19.70;10.90;;;;;;;11.59;95.42;97874.98;105070;1285;25604;-73
2022/09/30 11:04:06;;;;;;;16.80;10.60;;;;;;;11.58;95.75;97876.14;105190;1279;138813;-73
2022/09/30 11:06:39;;;;;;;16.90;11.60;;;;;;;11.58;96.10;97878.97;106536;1280;27657;-73
2022/09/30 11:09:13;;;;;;;15.60;10.70;;;;;;;11.61;96.23;97881.27;105608;1280;22597;-73
2022/09/30 11:11:52;;;;;;;13.30;9.70;;;;;;;11.64;95.97;97883.73;105454;1280;25545;-73
2022/09/30 11:14:34;;;;;;;17.00;11.00;;;;;;;11.64;95.67;97882.80;105522;1280;30577;-74
2022/09/30 11:17:28;;;;;;;15.40;10.90;;;;;;;11.63;96.06;97881.10;105328;1280;138643;-73
2022/09/30 11:20:08;;;;;;;15.20;9.80;;;;;;;11.65;96.15;97877.89;105481;1280;24338;-72
2022/09/30 11:22:43;;;;;;;16.20;10.20;;;;;;;11.65;95.80;97880.79;105325;1280;138916;-74
2022/09/30 11:25:16;;;;;;;14.40;9.40;;;;;;;11.65;95.72;97877.79;105461;1281;22553;-73
2022/09/30 11:27:53;;;;;;;18.10;10.00;;;;;;;11.64;95.82;97885.10;105829;1280;138676;-73
2022/09/30 11:30:35;;;;;;;15.20;9.30;;;;;;;11.65;95.56;97884.56;105835;1281;25409;-73
2022/09/30 11:33:14;;;;;;;13.90;9.80;;;;;;;11.67;95.94;97883.09;105355;1281;25116;-72
2022/09/30 11:36:00;;;;;;;11.80;9.00;;;;;;;11.71;96.17;97882.23;105527;1280;24335;-73
2022/09/30 11:38:56;;;;;;;11.60;8.20;;;;;;;11.74;95.97;97883.17;106026;1280;23010;-72
2022/09/30 11:41:40;;;;;;;11.90;8.50;;;;;;;11.76;95.99;97885.30;105694;1280;138428;-72
2022/09/30 11:44:36;;;;;;;12.40;9.00;;;;;;;11.78;95.96;97889.45;105536;1280;25266;-72